sensor_id;sensor_type;location;lat;lon;timestamp;P1;durP1;ratioP1;P2;durP2;ratioP2
76795;SDS011;65745;50.278;18.192;2023-09-19T00:01:52;22.70;;;18.60;;
76795;SDS011;65745;50.278;18.192;2023-09-19T00:04:26;20.30;;;18.10;;
76795;SDS011;65745;50.278;18.192;2023-09-19T00:07:01;20.30;;;18.10;;
76795;SDS011;65745;50.278;18.192;2023-09-19T00:09:34;20.60;;;18.60;;
76795;SDS011;65745;50.278;18.192;2023-09-19T00:12:07;20.10;;;18.10;;
76795;SDS011;65745;50.278;18.192;2023-09-19T00:14:39;19.40;;;17.30;;
76795;SDS011;65745;50.278;18.192;2023-09-19T00:17:11;20.50;;;18.50;;
76795;SDS011;65745;50.278;18.192;2023-09-19T00:19:45;20.10;;;17.90;;
76795;SDS011;65745;50.278;18.192;2023-09-19T00:22:20;20.70;;;18.50;;
76795;SDS011;65745;50.278;18.192;2023-09-19T00:24:55;20.60;;;18.40;;
76795;SDS011;65745;50.278;18.192;2023-09-19T00:27:27;20.50;;;18.40;;
76795;SDS011;65745;50.278;18.192;2023-09-19T00:30:00;20.00;;;17.90;;
76795;SDS011;65745;50.278;18.192;2023-09-19T00:32:33;20.30;;;18.20;;
76795;SDS011;65745;50.278;18.192;2023-09-19T00:35:07;18.40;;;16.60;;
76795;SDS011;65745;50.278;18.192;2023-09-19T00:37:40;20.30;;;18.30;;
76795;SDS011;65745;50.278;18.192;2023-09-19T00:40:13;20.10;;;18.00;;
76795;SDS011;65745;50.278;18.192;2023-09-19T00:42:46;19.80;;;17.80;;
76795;SDS011;65745;50.278;18.192;2023-09-19T00:45:19;18.10;;;16.10;;
76795;SDS011;65745;50.278;18.192;2023-09-19T00:47:51;22.30;;;18.30;;
76795;SDS011;65745;50.278;18.192;2023-09-19T00:50:24;19.90;;;17.90;;
76795;SDS011;65745;50.278;18.192;2023-09-19T00:52:57;19.80;;;17.60;;
76795;SDS011;65745;50.278;18.192;2023-09-19T00:55:30;19.90;;;17.80;;
76795;SDS011;65745;50.278;18.192;2023-09-19T00:58:03;21.10;;;18.80;;
76795;SDS011;65745;50.278;18.192;2023-09-19T01:00:36;20.50;;;18.40;;
76795;SDS011;65745;50.278;18.192;2023-09-19T01:03:09;19.20;;;17.20;;
76795;SDS011;65745;50.278;18.192;2023-09-19T01:05:42;20.20;;;17.50;;
76795;SDS011;65745;50.278;18.192;2023-09-19T01:08:15;19.40;;;17.40;;
76795;SDS011;65745;50.278;18.192;2023-09-19T01:10:50;19.70;;;17.70;;
76795;SDS011;65745;50.278;18.192;2023-09-19T01:13:28;19.90;;;17.90;;
76795;SDS011;65745;50.278;18.192;2023-09-19T01:16:11;20.50;;;18.40;;
76795;SDS011;65745;50.278;18.192;2023-09-19T01:18:52;19.90;;;17.70;;
76795;SDS011;65745;50.278;18.192;2023-09-19T01:21:33;21.20;;;18.90;;
76795;SDS011;65745;50.278;18.192;2023-09-19T01:24:34;18.60;;;16.70;;
76795;SDS011;65745;50.278;18.192;2023-09-19T01:27:34;20.30;;;18.20;;
76795;SDS011;65745;50.278;18.192;2023-09-19T01:30:24;17.40;;;15.70;;
76795;SDS011;65745;50.278;18.192;2023-09-19T01:33:04;21.10;;;18.50;;
76795;SDS011;65745;50.278;18.192;2023-09-19T01:35:38;20.30;;;18.20;;
76795;SDS011;65745;50.278;18.192;2023-09-19T01:38:11;19.30;;;17.40;;
76795;SDS011;65745;50.278;18.192;2023-09-19T01:40:45;23.50;;;17.70;;
76795;SDS011;65745;50.278;18.192;2023-09-19T01:43:29;19.60;;;17.50;;
76795;SDS011;65745;50.278;18.192;2023-09-19T01:46:07;20.60;;;18.40;;
76795;SDS011;65745;50.278;18.192;2023-09-19T01:48:46;19.80;;;17.90;;
76795;SDS011;65745;50.278;18.192;2023-09-19T01:51:40;18.70;;;16.80;;
76795;SDS011;65745;50.278;18.192;2023-09-19T01:54:18;20.20;;;18.10;;
76795;SDS011;65745;50.278;18.192;2023-09-19T01:56:59;20.20;;;18.00;;
76795;SDS011;65745;50.278;18.192;2023-09-19T01:59:40;19.00;;;17.10;;
76795;SDS011;65745;50.278;18.192;2023-09-19T02:02:20;22.70;;;18.10;;
76795;SDS011;65745;50.278;18.192;2023-09-19T02:04:53;21.30;;;19.10;;
76795;SDS011;65745;50.278;18.192;2023-09-19T02:07:27;20.20;;;18.10;;
76795;SDS011;65745;50.278;18.192;2023-09-19T02:10:01;20.80;;;18.40;;
76795;SDS011;65745;50.278;18.192;2023-09-19T02:12:34;20.90;;;18.70;;
76795;SDS011;65745;50.278;18.192;2023-09-19T02:15:08;22.20;;;19.40;;
76795;SDS011;65745;50.278;18.192;2023-09-19T02:17:40;23.00;;;19.50;;
76795;SDS011;65745;50.278;18.192;2023-09-19T02:20:13;20.70;;;18.50;;
76795;SDS011;65745;50.278;18.192;2023-09-19T02:22:45;22.20;;;19.80;;
76795;SDS011;65745;50.278;18.192;2023-09-19T02:25:19;22.00;;;19.70;;
76795;SDS011;65745;50.278;18.192;2023-09-19T02:27:51;23.90;;;18.30;;
76795;SDS011;65745;50.278;18.192;2023-09-19T02:30:25;21.40;;;18.60;;
76795;SDS011;65745;50.278;18.192;2023-09-19T02:32:57;21.00;;;18.90;;
76795;SDS011;65745;50.278;18.192;2023-09-19T02:35:32;22.20;;;19.90;;
76795;SDS011;65745;50.278;18.192;2023-09-19T02:38:05;20.10;;;18.10;;
76795;SDS011;65745;50.278;18.192;2023-09-19T02:40:40;21.80;;;19.60;;
76795;SDS011;65745;50.278;18.192;2023-09-19T02:43:12;21.20;;;18.80;;
76795;SDS011;65745;50.278;18.192;2023-09-19T02:45:46;21.20;;;18.90;;
76795;SDS011;65745;50.278;18.192;2023-09-19T02:48:19;23.80;;;18.70;;
76795;SDS011;65745;50.278;18.192;2023-09-19T02:50:52;21.60;;;19.40;;
76795;SDS011;65745;50.278;18.192;2023-09-19T02:53:24;21.40;;;19.10;;
76795;SDS011;65745;50.278;18.192;2023-09-19T02:55:57;22.00;;;19.20;;
76795;SDS011;65745;50.278;18.192;2023-09-19T02:58:29;21.10;;;18.80;;
76795;SDS011;65745;50.278;18.192;2023-09-19T03:01:10;21.10;;;19.00;;
76795;SDS011;65745;50.278;18.192;2023-09-19T03:03:43;22.30;;;20.00;;
76795;SDS011;65745;50.278;18.192;2023-09-19T03:06:16;20.80;;;18.70;;
76795;SDS011;65745;50.278;18.192;2023-09-19T03:08:49;21.60;;;19.40;;
76795;SDS011;65745;50.278;18.192;2023-09-19T03:11:22;22.20;;;19.90;;
76795;SDS011;65745;50.278;18.192;2023-09-19T03:13:58;23.40;;;20.90;;
76795;SDS011;65745;50.278;18.192;2023-09-19T03:16:30;20.90;;;18.70;;
76795;SDS011;65745;50.278;18.192;2023-09-19T03:19:03;20.10;;;18.00;;
76795;SDS011;65745;50.278;18.192;2023-09-19T03:21:36;22.20;;;18.80;;
76795;SDS011;65745;50.278;18.192;2023-09-19T03:24:09;21.50;;;17.60;;
76795;SDS011;65745;50.278;18.192;2023-09-19T03:26:41;20.60;;;18.50;;
76795;SDS011;65745;50.278;18.192;2023-09-19T03:29:14;21.20;;;18.50;;
76795;SDS011;65745;50.278;18.192;2023-09-19T03:31:47;22.10;;;18.20;;
76795;SDS011;65745;50.278;18.192;2023-09-19T03:34:20;19.70;;;17.60;;
76795;SDS011;65745;50.278;18.192;2023-09-19T03:36:53;20.40;;;17.70;;
76795;SDS011;65745;50.278;18.192;2023-09-19T03:39:25;18.20;;;16.20;;
76795;SDS011;65745;50.278;18.192;2023-09-19T03:41:58;18.20;;;16.30;;
76795;SDS011;65745;50.278;18.192;2023-09-19T03:44:32;20.30;;;18.10;;
76795;SDS011;65745;50.278;18.192;2023-09-19T03:47:04;19.70;;;17.00;;
76795;SDS011;65745;50.278;18.192;2023-09-19T03:49:37;17.80;;;15.80;;
76795;SDS011;65745;50.278;18.192;2023-09-19T03:52:09;17.00;;;15.30;;
76795;SDS011;65745;50.278;18.192;2023-09-19T03:54:41;16.00;;;14.40;;
76795;SDS011;65745;50.278;18.192;2023-09-19T03:57:15;16.00;;;14.40;;
76795;SDS011;65745;50.278;18.192;2023-09-19T03:59:50;18.20;;;14.80;;
76795;SDS011;65745;50.278;18.192;2023-09-19T04:02:23;16.20;;;14.00;;
76795;SDS011;65745;50.278;18.192;2023-09-19T04:04:55;14.80;;;12.50;;
76795;SDS011;65745;50.278;18.192;2023-09-19T04:07:27;13.90;;;12.10;;
76795;SDS011;65745;50.278;18.192;2023-09-19T04:09:59;14.10;;;12.40;;
76795;SDS011;65745;50.278;18.192;2023-09-19T04:12:32;14.20;;;12.00;;
76795;SDS011;65745;50.278;18.192;2023-09-19T04:15:05;15.60;;;11.90;;
76795;SDS011;65745;50.278;18.192;2023-09-19T04:17:42;12.90;;;11.50;;
76795;SDS011;65745;50.278;18.192;2023-09-19T04:20:15;13.70;;;10.40;;
76795;SDS011;65745;50.278;18.192;2023-09-19T04:22:48;10.70;;;9.30;;
76795;SDS011;65745;50.278;18.192;2023-09-19T04:25:21;11.60;;;10.00;;
76795;SDS011;65745;50.278;18.192;2023-09-19T04:27:53;9.30;;;8.30;;
76795;SDS011;65745;50.278;18.192;2023-09-19T04:30:25;10.20;;;8.20;;
76795;SDS011;65745;50.278;18.192;2023-09-19T04:32:57;9.20;;;7.50;;
76795;SDS011;65745;50.278;18.192;2023-09-19T04:35:33;8.20;;;7.30;;
76795;SDS011;65745;50.278;18.192;2023-09-19T04:38:08;8.30;;;7.00;;
76795;SDS011;65745;50.278;18.192;2023-09-19T04:40:40;8.10;;;5.70;;
76795;SDS011;65745;50.278;18.192;2023-09-19T04:43:12;6.80;;;5.60;;
76795;SDS011;65745;50.278;18.192;2023-09-19T04:45:46;5.50;;;4.20;;
76795;SDS011;65745;50.278;18.192;2023-09-19T04:48:18;4.70;;;4.20;;
76795;SDS011;65745;50.278;18.192;2023-09-19T04:50:51;6.40;;;4.20;;
76795;SDS011;65745;50.278;18.192;2023-09-19T04:53:23;5.60;;;3.90;;
76795;SDS011;65745;50.278;18.192;2023-09-19T04:55:57;5.00;;;3.60;;
76795;SDS011;65745;50.278;18.192;2023-09-19T04:58:29;5.20;;;3.50;;
76795;SDS011;65745;50.278;18.192;2023-09-19T05:01:02;4.30;;;3.60;;
76795;SDS011;65745;50.278;18.192;2023-09-19T05:03:34;5.30;;;3.20;;
76795;SDS011;65745;50.278;18.192;2023-09-19T05:06:06;3.10;;;2.70;;
76795;SDS011;65745;50.278;18.192;2023-09-19T05:08:38;3.90;;;2.90;;
76795;SDS011;65745;50.278;18.192;2023-09-19T05:11:10;4.80;;;2.90;;
76795;SDS011;65745;50.278;18.192;2023-09-19T05:13:42;4.80;;;3.10;;
76795;SDS011;65745;50.278;18.192;2023-09-19T05:16:15;4.90;;;3.70;;
76795;SDS011;65745;50.278;18.192;2023-09-19T05:18:47;5.20;;;3.40;;
76795;SDS011;65745;50.278;18.192;2023-09-19T05:21:20;5.10;;;3.40;;
76795;SDS011;65745;50.278;18.192;2023-09-19T05:23:52;4.00;;;3.60;;
76795;SDS011;65745;50.278;18.192;2023-09-19T05:26:25;4.30;;;3.40;;
76795;SDS011;65745;50.278;18.192;2023-09-19T05:28:57;5.80;;;3.70;;
76795;SDS011;65745;50.278;18.192;2023-09-19T05:31:30;4.50;;;3.70;;
76795;SDS011;65745;50.278;18.192;2023-09-19T05:34:02;5.00;;;3.60;;
76795;SDS011;65745;50.278;18.192;2023-09-19T05:36:35;6.00;;;3.80;;
76795;SDS011;65745;50.278;18.192;2023-09-19T05:39:08;5.30;;;4.00;;
76795;SDS011;65745;50.278;18.192;2023-09-19T05:41:41;6.00;;;4.20;;
76795;SDS011;65745;50.278;18.192;2023-09-19T05:44:14;4.90;;;3.70;;
76795;SDS011;65745;50.278;18.192;2023-09-19T05:46:46;4.90;;;3.90;;
76795;SDS011;65745;50.278;18.192;2023-09-19T05:49:19;7.70;;;4.20;;
76795;SDS011;65745;50.278;18.192;2023-09-19T05:51:51;5.90;;;4.60;;
76795;SDS011;65745;50.278;18.192;2023-09-19T05:54:28;6.10;;;4.30;;
76795;SDS011;65745;50.278;18.192;2023-09-19T05:57:00;6.70;;;4.90;;
76795;SDS011;65745;50.278;18.192;2023-09-19T05:59:32;6.10;;;4.30;;
76795;SDS011;65745;50.278;18.192;2023-09-19T06:02:04;5.80;;;4.30;;
76795;SDS011;65745;50.278;18.192;2023-09-19T06:04:39;7.80;;;4.50;;
76795;SDS011;65745;50.278;18.192;2023-09-19T06:07:12;6.00;;;4.70;;
76795;SDS011;65745;50.278;18.192;2023-09-19T06:09:46;6.70;;;4.30;;
76795;SDS011;65745;50.278;18.192;2023-09-19T06:12:18;5.50;;;4.70;;
76795;SDS011;65745;50.278;18.192;2023-09-19T06:14:50;5.30;;;4.30;;
76795;SDS011;65745;50.278;18.192;2023-09-19T06:17:23;12.20;;;5.40;;
76795;SDS011;65745;50.278;18.192;2023-09-19T06:19:56;14.70;;;5.30;;
76795;SDS011;65745;50.278;18.192;2023-09-19T06:22:28;13.90;;;5.80;;
76795;SDS011;65745;50.278;18.192;2023-09-19T06:25:01;15.40;;;5.60;;
76795;SDS011;65745;50.278;18.192;2023-09-19T06:27:36;9.90;;;5.10;;
76795;SDS011;65745;50.278;18.192;2023-09-19T06:30:12;20.60;;;5.40;;
76795;SDS011;65745;50.278;18.192;2023-09-19T06:32:46;5.90;;;4.20;;
76795;SDS011;65745;50.278;18.192;2023-09-19T06:35:19;6.40;;;4.30;;
76795;SDS011;65745;50.278;18.192;2023-09-19T06:37:51;5.90;;;4.10;;
76795;SDS011;65745;50.278;18.192;2023-09-19T06:40:23;7.50;;;5.30;;
76795;SDS011;65745;50.278;18.192;2023-09-19T06:42:57;7.10;;;5.40;;
76795;SDS011;65745;50.278;18.192;2023-09-19T06:45:31;9.90;;;5.90;;
76795;SDS011;65745;50.278;18.192;2023-09-19T06:48:04;7.00;;;6.30;;
76795;SDS011;65745;50.278;18.192;2023-09-19T06:53:10;6.80;;;5.40;;
76795;SDS011;65745;50.278;18.192;2023-09-19T06:55:43;5.80;;;4.60;;
76795;SDS011;65745;50.278;18.192;2023-09-19T06:58:17;5.60;;;4.50;;
76795;SDS011;65745;50.278;18.192;2023-09-19T07:00:50;5.90;;;4.70;;
76795;SDS011;65745;50.278;18.192;2023-09-19T07:03:22;5.70;;;4.90;;
76795;SDS011;65745;50.278;18.192;2023-09-19T07:05:56;6.10;;;4.60;;
76795;SDS011;65745;50.278;18.192;2023-09-19T07:08:28;6.80;;;4.80;;
76795;SDS011;65745;50.278;18.192;2023-09-19T07:11:00;6.40;;;4.80;;
76795;SDS011;65745;50.278;18.192;2023-09-19T07:13:35;6.70;;;4.80;;
76795;SDS011;65745;50.278;18.192;2023-09-19T07:16:09;9.80;;;5.40;;
76795;SDS011;65745;50.278;18.192;2023-09-19T07:18:57;6.30;;;4.70;;
76795;SDS011;65745;50.278;18.192;2023-09-19T07:21:29;6.50;;;4.60;;
76795;SDS011;65745;50.278;18.192;2023-09-19T07:24:02;7.20;;;4.60;;
76795;SDS011;65745;50.278;18.192;2023-09-19T07:26:35;4.80;;;3.70;;
76795;SDS011;65745;50.278;18.192;2023-09-19T07:29:09;5.20;;;3.90;;
76795;SDS011;65745;50.278;18.192;2023-09-19T07:31:41;5.30;;;3.90;;
76795;SDS011;65745;50.278;18.192;2023-09-19T07:34:13;5.50;;;3.50;;
76795;SDS011;65745;50.278;18.192;2023-09-19T07:36:45;4.90;;;3.50;;
76795;SDS011;65745;50.278;18.192;2023-09-19T07:39:18;5.10;;;3.60;;
76795;SDS011;65745;50.278;18.192;2023-09-19T07:41:51;9.70;;;5.00;;
76795;SDS011;65745;50.278;18.192;2023-09-19T07:44:24;5.10;;;3.70;;
76795;SDS011;65745;50.278;18.192;2023-09-19T07:46:56;4.30;;;3.70;;
76795;SDS011;65745;50.278;18.192;2023-09-19T07:49:30;6.10;;;4.10;;
76795;SDS011;65745;50.278;18.192;2023-09-19T07:52:04;5.80;;;3.90;;
76795;SDS011;65745;50.278;18.192;2023-09-19T07:54:37;5.40;;;4.00;;
76795;SDS011;65745;50.278;18.192;2023-09-19T07:57:11;4.90;;;3.90;;
76795;SDS011;65745;50.278;18.192;2023-09-19T07:59:44;4.90;;;4.20;;
76795;SDS011;65745;50.278;18.192;2023-09-19T08:02:16;45.40;;;8.00;;
76795;SDS011;65745;50.278;18.192;2023-09-19T08:04:48;5.40;;;4.30;;
76795;SDS011;65745;50.278;18.192;2023-09-19T08:07:22;5.30;;;3.70;;
76795;SDS011;65745;50.278;18.192;2023-09-19T08:09:54;5.10;;;4.40;;
76795;SDS011;65745;50.278;18.192;2023-09-19T08:12:27;3.80;;;3.30;;
76795;SDS011;65745;50.278;18.192;2023-09-19T08:15:01;4.30;;;3.50;;
76795;SDS011;65745;50.278;18.192;2023-09-19T08:17:35;5.50;;;3.90;;
76795;SDS011;65745;50.278;18.192;2023-09-19T08:20:10;4.40;;;3.70;;
76795;SDS011;65745;50.278;18.192;2023-09-19T08:22:46;4.40;;;3.80;;
76795;SDS011;65745;50.278;18.192;2023-09-19T08:25:22;4.30;;;3.80;;
76795;SDS011;65745;50.278;18.192;2023-09-19T08:27:55;4.70;;;3.40;;
76795;SDS011;65745;50.278;18.192;2023-09-19T08:30:29;4.00;;;3.60;;
76795;SDS011;65745;50.278;18.192;2023-09-19T08:33:04;3.90;;;3.30;;
76795;SDS011;65745;50.278;18.192;2023-09-19T08:35:36;3.60;;;3.20;;
76795;SDS011;65745;50.278;18.192;2023-09-19T08:38:10;3.90;;;3.40;;
76795;SDS011;65745;50.278;18.192;2023-09-19T08:40:43;3.80;;;3.30;;
76795;SDS011;65745;50.278;18.192;2023-09-19T08:43:15;4.60;;;4.20;;
76795;SDS011;65745;50.278;18.192;2023-09-19T08:45:47;3.80;;;3.40;;
76795;SDS011;65745;50.278;18.192;2023-09-19T08:48:22;4.00;;;3.30;;
76795;SDS011;65745;50.278;18.192;2023-09-19T08:50:59;3.80;;;3.20;;
76795;SDS011;65745;50.278;18.192;2023-09-19T08:53:36;4.30;;;3.10;;
76795;SDS011;65745;50.278;18.192;2023-09-19T08:56:16;4.10;;;2.70;;
76795;SDS011;65745;50.278;18.192;2023-09-19T08:58:53;5.30;;;2.70;;
76795;SDS011;65745;50.278;18.192;2023-09-19T09:01:28;4.50;;;2.90;;
76795;SDS011;65745;50.278;18.192;2023-09-19T09:04:02;4.00;;;2.70;;
76795;SDS011;65745;50.278;18.192;2023-09-19T09:06:38;5.40;;;3.20;;
76795;SDS011;65745;50.278;18.192;2023-09-19T09:09:12;4.00;;;3.10;;
76795;SDS011;65745;50.278;18.192;2023-09-19T09:11:45;5.40;;;3.00;;
76795;SDS011;65745;50.278;18.192;2023-09-19T09:14:19;4.00;;;3.00;;
76795;SDS011;65745;50.278;18.192;2023-09-19T09:16:55;4.80;;;3.20;;
76795;SDS011;65745;50.278;18.192;2023-09-19T09:19:28;4.60;;;2.90;;
76795;SDS011;65745;50.278;18.192;2023-09-19T09:22:08;3.80;;;3.00;;
76795;SDS011;65745;50.278;18.192;2023-09-19T09:24:52;3.80;;;3.00;;
76795;SDS011;65745;50.278;18.192;2023-09-19T09:27:27;3.80;;;2.50;;
76795;SDS011;65745;50.278;18.192;2023-09-19T09:30:00;3.90;;;3.20;;
76795;SDS011;65745;50.278;18.192;2023-09-19T09:32:33;3.60;;;2.80;;
76795;SDS011;65745;50.278;18.192;2023-09-19T09:35:14;3.50;;;2.50;;
76795;SDS011;65745;50.278;18.192;2023-09-19T09:37:50;3.20;;;2.80;;
76795;SDS011;65745;50.278;18.192;2023-09-19T09:40:47;3.50;;;2.60;;
76795;SDS011;65745;50.278;18.192;2023-09-19T09:43:30;4.10;;;3.10;;
76795;SDS011;65745;50.278;18.192;2023-09-19T09:46:12;3.60;;;2.60;;
76795;SDS011;65745;50.278;18.192;2023-09-19T09:49:03;4.80;;;2.90;;
76795;SDS011;65745;50.278;18.192;2023-09-19T09:51:45;3.40;;;3.00;;
76795;SDS011;65745;50.278;18.192;2023-09-19T09:54:29;3.90;;;3.10;;
76795;SDS011;65745;50.278;18.192;2023-09-19T09:57:06;5.20;;;3.20;;
76795;SDS011;65745;50.278;18.192;2023-09-19T10:03:20;4.20;;;3.00;;
76795;SDS011;65745;50.278;18.192;2023-09-19T10:06:01;3.50;;;3.20;;
76795;SDS011;65745;50.278;18.192;2023-09-19T10:08:58;3.30;;;3.00;;
76795;SDS011;65745;50.278;18.192;2023-09-19T10:11:41;4.00;;;2.60;;
76795;SDS011;65745;50.278;18.192;2023-09-19T10:14:14;4.70;;;3.10;;
76795;SDS011;65745;50.278;18.192;2023-09-19T10:16:53;3.80;;;3.20;;
76795;SDS011;65745;50.278;18.192;2023-09-19T10:19:30;3.70;;;3.10;;
76795;SDS011;65745;50.278;18.192;2023-09-19T10:22:07;4.40;;;3.10;;
76795;SDS011;65745;50.278;18.192;2023-09-19T10:24:41;4.10;;;3.30;;
76795;SDS011;65745;50.278;18.192;2023-09-19T10:27:30;3.70;;;3.20;;
76795;SDS011;65745;50.278;18.192;2023-09-19T10:30:07;4.20;;;3.30;;
76795;SDS011;65745;50.278;18.192;2023-09-19T10:32:41;3.50;;;3.00;;
76795;SDS011;65745;50.278;18.192;2023-09-19T10:35:16;4.40;;;3.60;;
76795;SDS011;65745;50.278;18.192;2023-09-19T10:37:50;4.40;;;3.10;;
76795;SDS011;65745;50.278;18.192;2023-09-19T10:40:24;3.30;;;3.00;;
76795;SDS011;65745;50.278;18.192;2023-09-19T10:43:02;4.50;;;3.10;;
76795;SDS011;65745;50.278;18.192;2023-09-19T10:45:35;4.00;;;2.60;;
76795;SDS011;65745;50.278;18.192;2023-09-19T10:48:09;3.60;;;3.00;;
76795;SDS011;65745;50.278;18.192;2023-09-19T10:50:45;3.30;;;2.90;;
76795;SDS011;65745;50.278;18.192;2023-09-19T10:53:19;3.70;;;3.30;;
76795;SDS011;65745;50.278;18.192;2023-09-19T10:55:53;3.90;;;3.20;;
76795;SDS011;65745;50.278;18.192;2023-09-19T10:58:31;4.80;;;3.30;;
76795;SDS011;65745;50.278;18.192;2023-09-19T11:01:09;3.40;;;3.10;;
76795;SDS011;65745;50.278;18.192;2023-09-19T11:03:44;3.50;;;3.10;;
76795;SDS011;65745;50.278;18.192;2023-09-19T11:06:18;3.20;;;2.90;;
76795;SDS011;65745;50.278;18.192;2023-09-19T11:08:52;3.90;;;3.30;;
76795;SDS011;65745;50.278;18.192;2023-09-19T11:11:51;4.70;;;3.60;;
76795;SDS011;65745;50.278;18.192;2023-09-19T11:14:40;4.70;;;3.60;;
76795;SDS011;65745;50.278;18.192;2023-09-19T11:20:26;5.50;;;3.90;;
76795;SDS011;65745;50.278;18.192;2023-09-19T11:23:19;3.60;;;3.20;;
76795;SDS011;65745;50.278;18.192;2023-09-19T11:25:56;4.30;;;3.90;;
76795;SDS011;65745;50.278;18.192;2023-09-19T11:28:29;3.80;;;3.20;;
76795;SDS011;65745;50.278;18.192;2023-09-19T11:34:39;3.60;;;3.30;;
76795;SDS011;65745;50.278;18.192;2023-09-19T11:40:52;4.50;;;3.30;;
76795;SDS011;65745;50.278;18.192;2023-09-19T11:46:52;4.80;;;2.90;;
76795;SDS011;65745;50.278;18.192;2023-09-19T11:49:28;4.90;;;3.80;;
76795;SDS011;65745;50.278;18.192;2023-09-19T11:52:04;4.60;;;3.90;;
76795;SDS011;65745;50.278;18.192;2023-09-19T11:54:37;4.40;;;3.20;;
76795;SDS011;65745;50.278;18.192;2023-09-19T11:57:10;4.10;;;3.50;;
76795;SDS011;65745;50.278;18.192;2023-09-19T11:59:50;4.50;;;3.80;;
76795;SDS011;65745;50.278;18.192;2023-09-19T12:02:31;5.10;;;3.90;;
76795;SDS011;65745;50.278;18.192;2023-09-19T12:05:10;5.20;;;4.70;;
76795;SDS011;65745;50.278;18.192;2023-09-19T12:07:46;4.40;;;3.70;;
76795;SDS011;65745;50.278;18.192;2023-09-19T12:10:18;3.60;;;3.20;;
76795;SDS011;65745;50.278;18.192;2023-09-19T12:12:52;5.10;;;3.40;;
76795;SDS011;65745;50.278;18.192;2023-09-19T12:15:26;3.60;;;3.20;;
76795;SDS011;65745;50.278;18.192;2023-09-19T12:18:04;3.40;;;3.10;;
76795;SDS011;65745;50.278;18.192;2023-09-19T12:20:43;4.10;;;3.80;;
76795;SDS011;65745;50.278;18.192;2023-09-19T12:23:19;3.70;;;3.40;;
76795;SDS011;65745;50.278;18.192;2023-09-19T12:25:51;3.30;;;2.90;;
76795;SDS011;65745;50.278;18.192;2023-09-19T12:28:27;4.00;;;3.20;;
76795;SDS011;65745;50.278;18.192;2023-09-19T12:31:07;4.00;;;3.50;;
76795;SDS011;65745;50.278;18.192;2023-09-19T12:33:40;3.50;;;2.90;;
76795;SDS011;65745;50.278;18.192;2023-09-19T12:36:23;3.50;;;2.90;;
76795;SDS011;65745;50.278;18.192;2023-09-19T12:38:59;3.80;;;3.00;;
76795;SDS011;65745;50.278;18.192;2023-09-19T12:41:38;3.90;;;3.10;;
76795;SDS011;65745;50.278;18.192;2023-09-19T12:44:11;3.70;;;2.90;;
76795;SDS011;65745;50.278;18.192;2023-09-19T12:46:45;3.40;;;2.80;;
76795;SDS011;65745;50.278;18.192;2023-09-19T12:49:17;4.80;;;3.10;;
76795;SDS011;65745;50.278;18.192;2023-09-19T12:51:51;9.70;;;5.60;;
76795;SDS011;65745;50.278;18.192;2023-09-19T12:54:38;7.40;;;5.10;;
76795;SDS011;65745;50.278;18.192;2023-09-19T12:57:24;4.30;;;3.20;;
76795;SDS011;65745;50.278;18.192;2023-09-19T12:59:56;5.20;;;3.00;;
76795;SDS011;65745;50.278;18.192;2023-09-19T13:02:29;6.20;;;5.60;;
76795;SDS011;65745;50.278;18.192;2023-09-19T13:05:03;3.90;;;3.40;;
76795;SDS011;65745;50.278;18.192;2023-09-19T13:07:42;3.20;;;2.70;;
76795;SDS011;65745;50.278;18.192;2023-09-19T13:10:16;3.90;;;3.10;;
76795;SDS011;65745;50.278;18.192;2023-09-19T13:12:53;6.40;;;5.40;;
76795;SDS011;65745;50.278;18.192;2023-09-19T13:15:25;10.80;;;9.70;;
76795;SDS011;65745;50.278;18.192;2023-09-19T13:17:58;18.90;;;17.00;;
76795;SDS011;65745;50.278;18.192;2023-09-19T13:20:42;14.80;;;13.20;;
76795;SDS011;65745;50.278;18.192;2023-09-19T13:23:27;12.20;;;10.70;;
76795;SDS011;65745;50.278;18.192;2023-09-19T13:26:00;9.20;;;5.90;;
76795;SDS011;65745;50.278;18.192;2023-09-19T13:28:34;6.10;;;3.80;;
76795;SDS011;65745;50.278;18.192;2023-09-19T13:31:08;4.60;;;2.80;;
76795;SDS011;65745;50.278;18.192;2023-09-19T13:33:43;5.00;;;3.00;;
76795;SDS011;65745;50.278;18.192;2023-09-19T13:36:16;6.50;;;4.10;;
76795;SDS011;65745;50.278;18.192;2023-09-19T13:38:48;7.00;;;4.20;;
76795;SDS011;65745;50.278;18.192;2023-09-19T13:41:22;5.70;;;3.70;;
76795;SDS011;65745;50.278;18.192;2023-09-19T13:43:57;13.30;;;7.30;;
76795;SDS011;65745;50.278;18.192;2023-09-19T13:46:29;11.70;;;6.30;;
76795;SDS011;65745;50.278;18.192;2023-09-19T13:49:03;8.60;;;5.60;;
76795;SDS011;65745;50.278;18.192;2023-09-19T13:51:35;8.30;;;5.20;;
76795;SDS011;65745;50.278;18.192;2023-09-19T13:54:09;11.40;;;6.00;;
76795;SDS011;65745;50.278;18.192;2023-09-19T13:56:44;9.60;;;6.40;;
76795;SDS011;65745;50.278;18.192;2023-09-19T13:59:19;6.40;;;4.80;;
76795;SDS011;65745;50.278;18.192;2023-09-19T14:01:53;5.50;;;3.80;;
76795;SDS011;65745;50.278;18.192;2023-09-19T14:04:26;4.00;;;3.10;;
76795;SDS011;65745;50.278;18.192;2023-09-19T14:07:00;3.90;;;3.00;;
76795;SDS011;65745;50.278;18.192;2023-09-19T14:09:33;3.50;;;2.70;;
76795;SDS011;65745;50.278;18.192;2023-09-19T14:12:06;3.60;;;2.50;;
76795;SDS011;65745;50.278;18.192;2023-09-19T14:14:39;3.30;;;2.70;;
76795;SDS011;65745;50.278;18.192;2023-09-19T14:17:16;4.10;;;3.10;;
76795;SDS011;65745;50.278;18.192;2023-09-19T14:19:50;3.20;;;2.80;;
76795;SDS011;65745;50.278;18.192;2023-09-19T14:22:24;2.60;;;2.40;;
76795;SDS011;65745;50.278;18.192;2023-09-19T14:24:56;3.30;;;2.50;;
76795;SDS011;65745;50.278;18.192;2023-09-19T14:27:29;3.70;;;2.80;;
76795;SDS011;65745;50.278;18.192;2023-09-19T14:30:01;4.70;;;3.00;;
76795;SDS011;65745;50.278;18.192;2023-09-19T14:32:36;2.80;;;2.40;;
76795;SDS011;65745;50.278;18.192;2023-09-19T14:35:09;3.90;;;2.90;;
76795;SDS011;65745;50.278;18.192;2023-09-19T14:37:45;5.50;;;3.20;;
76795;SDS011;65745;50.278;18.192;2023-09-19T14:40:19;5.00;;;3.10;;
76795;SDS011;65745;50.278;18.192;2023-09-19T14:42:52;5.50;;;3.20;;
76795;SDS011;65745;50.278;18.192;2023-09-19T14:45:24;4.80;;;3.40;;
76795;SDS011;65745;50.278;18.192;2023-09-19T14:47:57;5.70;;;3.30;;
76795;SDS011;65745;50.278;18.192;2023-09-19T14:50:29;5.60;;;3.10;;
76795;SDS011;65745;50.278;18.192;2023-09-19T14:53:02;5.60;;;3.30;;
76795;SDS011;65745;50.278;18.192;2023-09-19T14:55:38;5.90;;;3.00;;
76795;SDS011;65745;50.278;18.192;2023-09-19T14:58:14;4.90;;;3.10;;
76795;SDS011;65745;50.278;18.192;2023-09-19T15:00:49;10.00;;;2.90;;
76795;SDS011;65745;50.278;18.192;2023-09-19T15:03:22;3.80;;;2.80;;
76795;SDS011;65745;50.278;18.192;2023-09-19T15:05:59;4.70;;;2.80;;
76795;SDS011;65745;50.278;18.192;2023-09-19T15:08:34;4.60;;;2.70;;
76795;SDS011;65745;50.278;18.192;2023-09-19T15:11:11;10.10;;;3.30;;
76795;SDS011;65745;50.278;18.192;2023-09-19T15:13:47;3.60;;;2.80;;
76795;SDS011;65745;50.278;18.192;2023-09-19T15:16:21;3.80;;;2.60;;
76795;SDS011;65745;50.278;18.192;2023-09-19T15:18:53;5.10;;;3.00;;
76795;SDS011;65745;50.278;18.192;2023-09-19T15:21:26;4.10;;;2.60;;
76795;SDS011;65745;50.278;18.192;2023-09-19T15:23:59;4.20;;;2.50;;
76795;SDS011;65745;50.278;18.192;2023-09-19T15:26:33;5.30;;;2.80;;
76795;SDS011;65745;50.278;18.192;2023-09-19T15:29:08;3.90;;;2.70;;
76795;SDS011;65745;50.278;18.192;2023-09-19T15:31:42;3.80;;;2.70;;